sensor_id;sensor_type;location;lat;lon;timestamp;temperature;humidity
32895;DHT22;19251;49.484;8.260;2024-01-11T00:05:57;-1.40;11.80
32895;DHT22;19251;49.484;8.260;2024-01-11T00:10:59;-1.40;12.00
32895;DHT22;19251;49.484;8.260;2024-01-11T00:16:01;-1.40;12.00
32895;DHT22;19251;49.484;8.260;2024-01-11T00:21:04;-1.40;12.00
32895;DHT22;19251;49.484;8.260;2024-01-11T00:26:06;-1.50;12.10
32895;DHT22;19251;49.484;8.260;2024-01-11T00:31:08;-1.50;12.20
32895;DHT22;19251;49.484;8.260;2024-01-11T00:36:10;-1.40;12.30
32895;DHT22;19251;49.484;8.260;2024-01-11T00:41:12;-1.40;12.40
32895;DHT22;19251;49.484;8.260;2024-01-11T00:46:14;-1.40;12.50
32895;DHT22;19251;49.484;8.260;2024-01-11T00:51:16;-1.50;12.50
32895;DHT22;19251;49.484;8.260;2024-01-11T00:56:18;-1.40;12.60
32895;DHT22;19251;49.484;8.260;2024-01-11T01:01:21;-1.40;12.80
32895;DHT22;19251;49.484;8.260;2024-01-11T01:06:23;-1.40;12.80
32895;DHT22;19251;49.484;8.260;2024-01-11T01:11:25;-1.40;12.80
32895;DHT22;19251;49.484;8.260;2024-01-11T01:16:27;-1.40;12.80
32895;DHT22;19251;49.484;8.260;2024-01-11T01:26:32;-1.40;12.90
32895;DHT22;19251;49.484;8.260;2024-01-11T01:31:34;-1.40;13.00
32895;DHT22;19251;49.484;8.260;2024-01-11T01:36:40;-1.40;13.20
32895;DHT22;19251;49.484;8.260;2024-01-11T01:41:42;-1.40;13.20
32895;DHT22;19251;49.484;8.260;2024-01-11T01:46:44;-1.40;13.20
32895;DHT22;19251;49.484;8.260;2024-01-11T01:51:46;-1.40;13.20
32895;DHT22;19251;49.484;8.260;2024-01-11T01:56:48;-1.40;13.30
32895;DHT22;19251;49.484;8.260;2024-01-11T02:01:50;-1.40;13.40
32895;DHT22;19251;49.484;8.260;2024-01-11T02:06:53;-1.40;13.30
32895;DHT22;19251;49.484;8.260;2024-01-11T02:11:55;-1.40;13.40
32895;DHT22;19251;49.484;8.260;2024-01-11T02:16:57;-1.40;13.40
32895;DHT22;19251;49.484;8.260;2024-01-11T02:22:00;-1.40;13.50
32895;DHT22;19251;49.484;8.260;2024-01-11T02:27:04;-1.40;13.60
32895;DHT22;19251;49.484;8.260;2024-01-11T02:32:06;-1.40;13.70
32895;DHT22;19251;49.484;8.260;2024-01-11T02:37:10;-1.40;13.70
32895;DHT22;19251;49.484;8.260;2024-01-11T02:42:12;-1.40;13.60
32895;DHT22;19251;49.484;8.260;2024-01-11T02:47:15;-1.40;13.50
32895;DHT22;19251;49.484;8.260;2024-01-11T02:52:17;-1.40;13.60
32895;DHT22;19251;49.484;8.260;2024-01-11T02:57:19;-1.40;13.80
32895;DHT22;19251;49.484;8.260;2024-01-11T03:02:21;-1.50;13.70
32895;DHT22;19251;49.484;8.260;2024-01-11T03:07:24;-1.50;13.60
32895;DHT22;19251;49.484;8.260;2024-01-11T03:12:26;-1.50;13.60
32895;DHT22;19251;49.484;8.260;2024-01-11T03:17:28;-1.50;13.80
32895;DHT22;19251;49.484;8.260;2024-01-11T03:22:30;-1.50;13.90
32895;DHT22;19251;49.484;8.260;2024-01-11T03:27:32;-1.50;14.00
32895;DHT22;19251;49.484;8.260;2024-01-11T03:32:34;-1.50;14.10
32895;DHT22;19251;49.484;8.260;2024-01-11T03:37:36;-1.40;14.10
32895;DHT22;19251;49.484;8.260;2024-01-11T03:42:38;-1.50;13.90
32895;DHT22;19251;49.484;8.260;2024-01-11T03:47:40;-1.50;14.10
32895;DHT22;19251;49.484;8.260;2024-01-11T03:52:44;-1.60;14.00
32895;DHT22;19251;49.484;8.260;2024-01-11T03:57:46;-1.60;14.00
32895;DHT22;19251;49.484;8.260;2024-01-11T04:02:48;-1.60;14.00
32895;DHT22;19251;49.484;8.260;2024-01-11T04:07:50;-1.60;14.10
32895;DHT22;19251;49.484;8.260;2024-01-11T04:12:52;-1.70;14.00
32895;DHT22;19251;49.484;8.260;2024-01-11T04:22:56;-1.80;14.10
32895;DHT22;19251;49.484;8.260;2024-01-11T04:27:59;-1.80;14.20
32895;DHT22;19251;49.484;8.260;2024-01-11T04:33:01;-1.90;14.20
32895;DHT22;19251;49.484;8.260;2024-01-11T04:38:03;-1.80;14.40
32895;DHT22;19251;49.484;8.260;2024-01-11T04:43:05;-1.80;14.50
32895;DHT22;19251;49.484;8.260;2024-01-11T04:48:09;-1.80;14.50
32895;DHT22;19251;49.484;8.260;2024-01-11T04:53:11;-1.80;14.50
32895;DHT22;19251;49.484;8.260;2024-01-11T04:58:14;-1.80;14.70
32895;DHT22;19251;49.484;8.260;2024-01-11T05:03:15;-1.70;15.00
32895;DHT22;19251;49.484;8.260;2024-01-11T05:13:23;-1.70;14.90
32895;DHT22;19251;49.484;8.260;2024-01-11T05:18:25;-1.70;15.00
32895;DHT22;19251;49.484;8.260;2024-01-11T05:23:27;-1.70;14.90
32895;DHT22;19251;49.484;8.260;2024-01-11T05:28:29;-1.70;14.90
32895;DHT22;19251;49.484;8.260;2024-01-11T05:33:31;-1.70;15.00
32895;DHT22;19251;49.484;8.260;2024-01-11T05:38:34;-1.70;15.00
32895;DHT22;19251;49.484;8.260;2024-01-11T05:43:37;-1.60;15.10
32895;DHT22;19251;49.484;8.260;2024-01-11T05:48:39;-1.60;15.00
32895;DHT22;19251;49.484;8.260;2024-01-11T05:53:41;-1.70;14.90
32895;DHT22;19251;49.484;8.260;2024-01-11T05:58:44;-1.70;15.10
32895;DHT22;19251;49.484;8.260;2024-01-11T06:03:46;-1.70;15.10
32895;DHT22;19251;49.484;8.260;2024-01-11T06:08:49;-1.70;15.10
32895;DHT22;19251;49.484;8.260;2024-01-11T06:13:51;-1.70;15.00
32895;DHT22;19251;49.484;8.260;2024-01-11T06:23:56;-1.70;15.20
32895;DHT22;19251;49.484;8.260;2024-01-11T06:28:58;-1.70;15.00
32895;DHT22;19251;49.484;8.260;2024-01-11T06:34:00;-1.70;15.00
32895;DHT22;19251;49.484;8.260;2024-01-11T06:39:03;-1.70;15.00
32895;DHT22;19251;49.484;8.260;2024-01-11T06:44:05;-1.90;15.00
32895;DHT22;19251;49.484;8.260;2024-01-11T06:49:08;-1.90;15.20
32895;DHT22;19251;49.484;8.260;2024-01-11T06:54:10;-2.00;15.10
32895;DHT22;19251;49.484;8.260;2024-01-11T06:59:12;-2.00;15.40
32895;DHT22;19251;49.484;8.260;2024-01-11T07:04:14;-2.00;15.60
32895;DHT22;19251;49.484;8.260;2024-01-11T07:09:17;-2.00;15.90
32895;DHT22;19251;49.484;8.260;2024-01-11T07:14:19;-2.00;16.10
32895;DHT22;19251;49.484;8.260;2024-01-11T07:19:21;-2.00;16.40
32895;DHT22;19251;49.484;8.260;2024-01-11T07:24:23;-1.90;16.60
32895;DHT22;19251;49.484;8.260;2024-01-11T07:29:27;-1.80;16.60
32895;DHT22;19251;49.484;8.260;2024-01-11T07:34:29;-1.70;16.60
32895;DHT22;19251;49.484;8.260;2024-01-11T07:39:31;-1.70;16.60
32895;DHT22;19251;49.484;8.260;2024-01-11T07:44:33;-1.60;16.60
32895;DHT22;19251;49.484;8.260;2024-01-11T07:49:35;-1.60;16.60
32895;DHT22;19251;49.484;8.260;2024-01-11T07:54:37;-1.50;16.70
32895;DHT22;19251;49.484;8.260;2024-01-11T07:59:39;-1.50;16.70
32895;DHT22;19251;49.484;8.260;2024-01-11T08:09:46;-1.30;16.80
32895;DHT22;19251;49.484;8.260;2024-01-11T08:14:48;-1.30;16.90
32895;DHT22;19251;49.484;8.260;2024-01-11T08:19:51;-1.20;16.90
32895;DHT22;19251;49.484;8.260;2024-01-11T08:24:53;-1.10;16.90
32895;DHT22;19251;49.484;8.260;2024-01-11T08:29:55;-1.00;17.00
32895;DHT22;19251;49.484;8.260;2024-01-11T08:34:57;-0.90;17.00
32895;DHT22;19251;49.484;8.260;2024-01-11T08:39:59;-0.80;17.00
32895;DHT22;19251;49.484;8.260;2024-01-11T08:45:01;-0.60;17.10
32895;DHT22;19251;49.484;8.260;2024-01-11T08:50:08;-0.60;17.00
32895;DHT22;19251;49.484;8.260;2024-01-11T08:55:14;-0.50;17.00
32895;DHT22;19251;49.484;8.260;2024-01-11T09:00:19;-0.40;17.00
32895;DHT22;19251;49.484;8.260;2024-01-11T09:05:21;-0.30;17.00
32895;DHT22;19251;49.484;8.260;2024-01-11T09:15:26;0.00;17.10
32895;DHT22;19251;49.484;8.260;2024-01-11T09:20:28;0.10;17.00
32895;DHT22;19251;49.484;8.260;2024-01-11T09:25:30;0.20;17.00
32895;DHT22;19251;49.484;8.260;2024-01-11T09:30:32;0.40;17.00
32895;DHT22;19251;49.484;8.260;2024-01-11T09:35:35;0.50;16.90
32895;DHT22;19251;49.484;8.260;2024-01-11T09:40:37;0.60;16.90
32895;DHT22;19251;49.484;8.260;2024-01-11T09:45:39;0.70;16.90
32895;DHT22;19251;49.484;8.260;2024-01-11T09:50:41;0.80;16.80
32895;DHT22;19251;49.484;8.260;2024-01-11T09:55:43;0.80;16.60
32895;DHT22;19251;49.484;8.260;2024-01-11T10:00:45;0.90;16.50
32895;DHT22;19251;49.484;8.260;2024-01-11T10:05:49;1.00;16.50
32895;DHT22;19251;49.484;8.260;2024-01-11T10:10:51;1.10;16.60
32895;DHT22;19251;49.484;8.260;2024-01-11T10:20:57;1.10;16.40
32895;DHT22;19251;49.484;8.260;2024-01-11T10:26:00;1.40;16.60
32895;DHT22;19251;49.484;8.260;2024-01-11T10:31:02;1.50;16.60
32895;DHT22;19251;49.484;8.260;2024-01-11T10:36:04;1.70;16.40
32895;DHT22;19251;49.484;8.260;2024-01-11T10:41:07;1.80;16.30
32895;DHT22;19251;49.484;8.260;2024-01-11T10:46:11;2.00;16.50
32895;DHT22;19251;49.484;8.260;2024-01-11T10:51:14;2.10;16.10
32895;DHT22;19251;49.484;8.260;2024-01-11T10:56:20;2.30;16.00
32895;DHT22;19251;49.484;8.260;2024-01-11T11:01:22;2.50;16.10
32895;DHT22;19251;49.484;8.260;2024-01-11T11:06:26;2.80;16.10
32895;DHT22;19251;49.484;8.260;2024-01-11T11:11:30;2.80;15.90
32895;DHT22;19251;49.484;8.260;2024-01-11T11:21:41;2.90;15.70
32895;DHT22;19251;49.484;8.260;2024-01-11T11:26:44;3.10;15.40
32895;DHT22;19251;49.484;8.260;2024-01-11T11:31:46;3.20;15.30
32895;DHT22;19251;49.484;8.260;2024-01-11T11:36:55;3.40;15.50
32895;DHT22;19251;49.484;8.260;2024-01-11T11:41:58;3.60;15.20
32895;DHT22;19251;49.484;8.260;2024-01-11T11:52:23;4.00;14.80
32895;DHT22;19251;49.484;8.260;2024-01-11T11:57:26;4.20;14.60
32895;DHT22;19251;49.484;8.260;2024-01-11T12:02:29;4.50;14.60
32895;DHT22;19251;49.484;8.260;2024-01-11T12:07:31;4.70;14.30
32895;DHT22;19251;49.484;8.260;2024-01-11T12:12:34;4.90;14.30
32895;DHT22;19251;49.484;8.260;2024-01-11T12:17:36;5.10;13.70
32895;DHT22;19251;49.484;8.260;2024-01-11T12:22:40;5.30;13.10
32895;DHT22;19251;49.484;8.260;2024-01-11T12:27:42;5.40;13.10
32895;DHT22;19251;49.484;8.260;2024-01-11T12:32:45;5.50;12.70
32895;DHT22;19251;49.484;8.260;2024-01-11T12:37:52;5.70;12.50
32895;DHT22;19251;49.484;8.260;2024-01-11T12:42:54;5.80;12.30
32895;DHT22;19251;49.484;8.260;2024-01-11T12:47:59;5.90;12.30
32895;DHT22;19251;49.484;8.260;2024-01-11T12:53:08;6.20;12.30
32895;DHT22;19251;49.484;8.260;2024-01-11T12:58:10;6.40;11.80
32895;DHT22;19251;49.484;8.260;2024-01-11T13:03:12;6.60;11.60
32895;DHT22;19251;49.484;8.260;2024-01-11T13:08:14;6.70;11.70
32895;DHT22;19251;49.484;8.260;2024-01-11T13:13:18;6.90;11.20
32895;DHT22;19251;49.484;8.260;2024-01-11T13:18:21;7.10;10.90
32895;DHT22;19251;49.484;8.260;2024-01-11T13:23:23;7.10;10.70
32895;DHT22;19251;49.484;8.260;2024-01-11T13:28:27;7.20;10.20
32895;DHT22;19251;49.484;8.260;2024-01-11T13:33:29;7.30;9.70
32895;DHT22;19251;49.484;8.260;2024-01-11T13:38:31;7.20;9.30
32895;DHT22;19251;49.484;8.260;2024-01-11T13:43:33;7.30;9.60
32895;DHT22;19251;49.484;8.260;2024-01-11T13:48:36;7.40;9.50
32895;DHT22;19251;49.484;8.260;2024-01-11T13:53:39;7.60;9.30
32895;DHT22;19251;49.484;8.260;2024-01-11T13:58:41;7.50;8.80
32895;DHT22;19251;49.484;8.260;2024-01-11T14:03:43;7.50;8.40
32895;DHT22;19251;49.484;8.260;2024-01-11T14:08:46;7.50;8.20
32895;DHT22;19251;49.484;8.260;2024-01-11T14:13:48;7.40;8.60
32895;DHT22;19251;49.484;8.260;2024-01-11T14:18:50;7.50;8.50
32895;DHT22;19251;49.484;8.260;2024-01-11T14:23:52;7.40;8.20
32895;DHT22;19251;49.484;8.260;2024-01-11T14:28:57;7.40;7.90
32895;DHT22;19251;49.484;8.260;2024-01-11T14:33:59;7.20;7.50
32895;DHT22;19251;49.484;8.260;2024-01-11T14:39:02;7.00;7.50
32895;DHT22;19251;49.484;8.260;2024-01-11T14:44:06;6.80;7.50
32895;DHT22;19251;49.484;8.260;2024-01-11T14:49:09;6.60;7.50
32895;DHT22;19251;49.484;8.260;2024-01-11T14:54:11;6.40;7.40
32895;DHT22;19251;49.484;8.260;2024-01-11T14:59:13;6.20;7.40
32895;DHT22;19251;49.484;8.260;2024-01-11T15:04:15;6.00;7.60
32895;DHT22;19251;49.484;8.260;2024-01-11T15:09:18;5.90;7.80
32895;DHT22;19251;49.484;8.260;2024-01-11T15:14:20;5.80;7.90
32895;DHT22;19251;49.484;8.260;2024-01-11T15:19:22;5.80;8.00
32895;DHT22;19251;49.484;8.260;2024-01-11T15:24:25;5.50;8.00
32895;DHT22;19251;49.484;8.260;2024-01-11T15:29:27;5.40;8.10
32895;DHT22;19251;49.484;8.260;2024-01-11T15:34:29;5.20;8.10
32895;DHT22;19251;49.484;8.260;2024-01-11T15:39:31;5.10;8.20
32895;DHT22;19251;49.484;8.260;2024-01-11T15:44:35;4.90;8.10
32895;DHT22;19251;49.484;8.260;2024-01-11T15:49:40;4.70;8.20
32895;DHT22;19251;49.484;8.260;2024-01-11T15:54:42;4.50;8.40
32895;DHT22;19251;49.484;8.260;2024-01-11T15:59:44;4.40;8.40
32895;DHT22;19251;49.484;8.260;2024-01-11T16:04:47;4.20;8.40
32895;DHT22;19251;49.484;8.260;2024-01-11T16:09:49;4.00;8.50
32895;DHT22;19251;49.484;8.260;2024-01-11T16:14:51;3.80;8.50
32895;DHT22;19251;49.484;8.260;2024-01-11T16:19:57;3.70;8.60
32895;DHT22;19251;49.484;8.260;2024-01-11T16:24:59;3.40;8.60
32895;DHT22;19251;49.484;8.260;2024-01-11T16:30:03;3.30;8.70
32895;DHT22;19251;49.484;8.260;2024-01-11T16:35:06;3.20;8.90
32895;DHT22;19251;49.484;8.260;2024-01-11T16:40:08;3.10;9.10
32895;DHT22;19251;49.484;8.260;2024-01-11T16:45:12;2.90;9.10
32895;DHT22;19251;49.484;8.260;2024-01-11T16:50:14;2.80;8.90
32895;DHT22;19251;49.484;8.260;2024-01-11T16:55:16;2.60;8.80
32895;DHT22;19251;49.484;8.260;2024-01-11T17:05:21;2.40;9.30
32895;DHT22;19251;49.484;8.260;2024-01-11T17:10:23;2.30;9.40
32895;DHT22;19251;49.484;8.260;2024-01-11T17:15:26;2.20;9.50
32895;DHT22;19251;49.484;8.260;2024-01-11T17:20:28;2.20;9.60
32895;DHT22;19251;49.484;8.260;2024-01-11T17:25:31;2.10;9.80
32895;DHT22;19251;49.484;8.260;2024-01-11T17:30:33;2.10;10.10
32895;DHT22;19251;49.484;8.260;2024-01-11T17:35:35;2.00;10.10
32895;DHT22;19251;49.484;8.260;2024-01-11T17:40:38;1.90;10.30
32895;DHT22;19251;49.484;8.260;2024-01-11T17:45:41;1.90;10.40
32895;DHT22;19251;49.484;8.260;2024-01-11T17:50:45;1.80;10.40
32895;DHT22;19251;49.484;8.260;2024-01-11T17:55:47;1.80;10.40
32895;DHT22;19251;49.484;8.260;2024-01-11T18:00:49;1.80;10.50
32895;DHT22;19251;49.484;8.260;2024-01-11T18:05:51;1.70;10.60
32895;DHT22;19251;49.484;8.260;2024-01-11T18:10:54;1.60;10.70
32895;DHT22;19251;49.484;8.260;2024-01-11T18:15:56;1.50;10.70
32895;DHT22;19251;49.484;8.260;2024-01-11T18:20:58;1.50;10.80
32895;DHT22;19251;49.484;8.260;2024-01-11T18:26:00;1.40;10.80
32895;DHT22;19251;49.484;8.260;2024-01-11T18:31:02;1.40;10.90
32895;DHT22;19251;49.484;8.260;2024-01-11T18:36:04;1.30;10.90
32895;DHT22;19251;49.484;8.260;2024-01-11T18:41:07;1.20;10.90
32895;DHT22;19251;49.484;8.260;2024-01-11T18:46:09;1.20;11.00
32895;DHT22;19251;49.484;8.260;2024-01-11T18:51:11;1.10;11.10
32895;DHT22;19251;49.484;8.260;2024-01-11T18:56:13;1.10;11.20
32895;DHT22;19251;49.484;8.260;2024-01-11T19:01:16;1.00;11.30
32895;DHT22;19251;49.484;8.260;2024-01-11T19:06:19;0.90;11.30
32895;DHT22;19251;49.484;8.260;2024-01-11T19:11:21;0.90;11.40
32895;DHT22;19251;49.484;8.260;2024-01-11T19:16:23;0.90;11.60
32895;DHT22;19251;49.484;8.260;2024-01-11T19:21:26;0.80;11.50
32895;DHT22;19251;49.484;8.260;2024-01-11T19:26:28;0.80;11.50
32895;DHT22;19251;49.484;8.260;2024-01-11T19:36:37;0.70;11.60
32895;DHT22;19251;49.484;8.260;2024-01-11T19:41:39;0.60;11.60
32895;DHT22;19251;49.484;8.260;2024-01-11T19:46:41;0.60;11.70
32895;DHT22;19251;49.484;8.260;2024-01-11T19:51:46;0.60;11.80
32895;DHT22;19251;49.484;8.260;2024-01-11T19:56:48;0.50;11.90
32895;DHT22;19251;49.484;8.260;2024-01-11T20:01:50;0.50;12.00
32895;DHT22;19251;49.484;8.260;2024-01-11T20:06:55;0.40;12.10
32895;DHT22;19251;49.484;8.260;2024-01-11T20:11:58;0.40;12.10
32895;DHT22;19251;49.484;8.260;2024-01-11T20:17:00;0.30;12.10
32895;DHT22;19251;49.484;8.260;2024-01-11T20:22:03;0.30;12.20
32895;DHT22;19251;49.484;8.260;2024-01-11T20:27:05;0.20;12.30
32895;DHT22;19251;49.484;8.260;2024-01-11T20:32:08;0.20;12.30
32895;DHT22;19251;49.484;8.260;2024-01-11T20:37:10;0.10;12.40
32895;DHT22;19251;49.484;8.260;2024-01-11T20:42:12;0.10;12.50
32895;DHT22;19251;49.484;8.260;2024-01-11T20:47:14;0.00;12.50
32895;DHT22;19251;49.484;8.260;2024-01-11T20:52:19;0.10;12.80
32895;DHT22;19251;49.484;8.260;2024-01-11T20:57:21;0.10;12.80
32895;DHT22;19251;49.484;8.260;2024-01-11T21:02:24;-0.10;12.80
32895;DHT22;19251;49.484;8.260;2024-01-11T21:07:26;0.10;13.10
32895;DHT22;19251;49.484;8.260;2024-01-11T21:12:28;0.00;13.00
32895;DHT22;19251;49.484;8.260;2024-01-11T21:17:30;0.10;13.10
32895;DHT22;19251;49.484;8.260;2024-01-11T21:22:33;0.00;13.00
32895;DHT22;19251;49.484;8.260;2024-01-11T21:27:37;0.00;13.00
32895;DHT22;19251;49.484;8.260;2024-01-11T21:32:39;0.10;13.30
32895;DHT22;19251;49.484;8.260;2024-01-11T21:37:42;0.10;13.20
32895;DHT22;19251;49.484;8.260;2024-01-11T21:42:44;0.10;13.10
32895;DHT22;19251;49.484;8.260;2024-01-11T21:47:47;0.00;13.20
32895;DHT22;19251;49.484;8.260;2024-01-11T21:52:53;0.00;13.30
32895;DHT22;19251;49.484;8.260;2024-01-11T21:57:55;0.00;13.20
32895;DHT22;19251;49.484;8.260;2024-01-11T22:02:58;0.00;13.40
32895;DHT22;19251;49.484;8.260;2024-01-11T22:08:00;0.00;13.60
32895;DHT22;19251;49.484;8.260;2024-01-11T22:13:02;0.00;13.60
32895;DHT22;19251;49.484;8.260;2024-01-11T22:18:04;0.00;13.80
32895;DHT22;19251;49.484;8.260;2024-01-11T22:23:07;0.00;13.80
32895;DHT22;19251;49.484;8.260;2024-01-11T22:28:09;0.00;13.90
32895;DHT22;19251;49.484;8.260;2024-01-11T22:33:11;-0.10;14.00
32895;DHT22;19251;49.484;8.260;2024-01-11T22:38:16;0.00;14.30
32895;DHT22;19251;49.484;8.260;2024-01-11T22:43:18;0.00;14.50
32895;DHT22;19251;49.484;8.260;2024-01-11T22:48:20;0.10;14.90
32895;DHT22;19251;49.484;8.260;2024-01-11T22:53:22;0.10;14.90
32895;DHT22;19251;49.484;8.260;2024-01-11T22:58:25;0.20;15.00
32895;DHT22;19251;49.484;8.260;2024-01-11T23:03:27;0.30;15.10
32895;DHT22;19251;49.484;8.260;2024-01-11T23:08:29;0.30;15.00
32895;DHT22;19251;49.484;8.260;2024-01-11T23:13:32;0.30;14.90
32895;DHT22;19251;49.484;8.260;2024-01-11T23:23:37;0.30;15.10
32895;DHT22;19251;49.484;8.260;2024-01-11T23:28:39;0.40;15.10
32895;DHT22;19251;49.484;8.260;2024-01-11T23:33:41;0.30;15.10
32895;DHT22;19251;49.484;8.260;2024-01-11T23:38:44;0.30;15.20
32895;DHT22;19251;49.484;8.260;2024-01-11T23:43:46;0.40;15.40
32895;DHT22;19251;49.484;8.260;2024-01-11T23:48:48;0.30;15.50
32895;DHT22;19251;49.484;8.260;2024-01-11T23:53:50;0.40;15.60
32895;DHT22;19251;49.484;8.260;2024-01-11T23:58:53;0.40;15.60
